Bridgewater, NJ (08807)

7:50 PM EST on February 26, 2015 (GMT -0500)
KNJBRIDG8 | Change Station
CLOSE
Current Station
Personal Weather Station
Location: Bridgewater, NJ
Elevation: 160 ft
Nearby Weather Stations

Elev 160 ft 40.59 °N, 74.65 °W | Updated 40 seconds ago

Overcast
Overcast
24.1 °F
Feels Like 24 °F
N
-
Wind Variable Wind from North

Today
High -- | Low -- °F
--% Chance of Precip.
Yesterday
High -- | Low -- °F
Precip. -- in
6:37 AM 5:46 PM
Waxing Gibbous, 63% visible
Pressure 30.05 in
Visibility 10.0 miles
Clouds Overcast 9000 ft
Windchill 24 °F
Dew Point 15 °F
Humidity 68%
Rainfall -999.00 in
Snow Depth Not available.
UV 0 out of 12
Pollen .50 out of 12
Air Quality Not available.
Flu Activity Not available.
METAR KSMQ 262353Z AUTO 00000KT 10SM OVC090 M03/M11 A3004 RMK AO2 SLP174 T10331106 11017 21033 51023 TSNO

More Conditions Fewer Conditions

Pressure 30.05 in
Visibility 10.0 miles
Clouds Overcast 9000 ft
Windchill 24 °F
Dew Point 15 °F
Humidity 68%
Rainfall -999.00 in
Snow Depth Not available.
UV 0 out of 12
Pollen .50 out of 12
Air Quality Not available.
Flu Activity Not available.
METAR KSMQ 262353Z AUTO 00000KT 10SM OVC090 M03/M11 A3004 RMK AO2 SLP174 T10331106 11017 21033 51023 TSNO

More Conditions Fewer Conditions

10-Day Weather Forecast

Almanac

Astronomy

Feb. 26, 2015 Rise Set
Actual Time
Civil Twilight
Nautical Twilight
Astronomical Twilight
Moon
Length of Visible Light
Length of Day
Tomorrow will be .
, % of the Moon is Illuminated

Today's Extremes

State Highs State Lows

Community

WunderPhotos

Upload Photos

1,800,548 photos uploaded!

WunderBlogs® & News

Nearby

Air Quality

  Air Quality AQ Index Pollutant
Not available.

Snow Depth

Station Depth Elevation

Earthquake Activity

City Distance Mag. Time & Date
Minimum magnitude displayed is 2.5.

Coastal Water Temperatures

Place Temperature

Nearby Weather Stations